NSZ1104 EKCH-EDDH
Flight info
| Callsign | NSZ1104 |
|---|---|
| Flight time | 1h 5m |
| Altitude | 24000 |
| Route | NEXEN T503 MICOS/N0438F280 N850 BOGMU BOGMU3N |
| Aircraft | B38M/M-SDE1FGHILORVWXY/HB1 |
Departure
| Time | 2026-05-06 13:42 |
|---|---|
| Airport | Copenhagen Kastrup Airport (EKCH) |
Arrival
| Time | 2026-05-06 14:48 |
|---|---|
| Airport | Hamburg Helmut Schmidt Airport (EDDH) |
| Time | Latitude | Longitude | Altitude | Speed | Heading |
|---|---|---|---|---|---|
| 2026-05-06 13:11 | 55.62715 | 12.64091 | 19 ft | 0 kts | 33° |
| 2026-05-06 13:31 | 55.62704 | 12.64079 | 22 ft | 2 kts | 35° |
| 2026-05-06 13:32 | 55.62691 | 12.64061 | 20 ft | 2 kts | 38° |
| 2026-05-06 13:32 | 55.62678 | 12.64042 | 21 ft | 2 kts | 48° |
| 2026-05-06 13:32 | 55.62670 | 12.64017 | 19 ft | 2 kts | 87° |
| 2026-05-06 13:32 | 55.62673 | 12.63993 | 23 ft | 1 kts | 122° |
| 2026-05-06 13:33 | 55.62674 | 12.63990 | 23 ft | 0 kts | 123° |
| 2026-05-06 13:35 | 55.62674 | 12.63992 | 23 ft | 1 kts | 123° |
| 2026-05-06 13:36 | 55.62668 | 12.64007 | 19 ft | 3 kts | 123° |
| 2026-05-06 13:36 | 55.62641 | 12.64085 | 19 ft | 12 kts | 122° |
| 2026-05-06 13:36 | 55.62591 | 12.64224 | 19 ft | 15 kts | 123° |
| 2026-05-06 13:36 | 55.62531 | 12.64386 | 19 ft | 17 kts | 123° |
| 2026-05-06 13:37 | 55.62466 | 12.64563 | 19 ft | 18 kts | 123° |
| 2026-05-06 13:37 | 55.62401 | 12.64735 | 19 ft | 15 kts | 124° |
| 2026-05-06 13:37 | 55.62341 | 12.64894 | 19 ft | 4 kts | 125° |
| 2026-05-06 13:37 | 55.62331 | 12.64919 | 20 ft | 12 kts | 124° |
| 2026-05-06 13:38 | 55.62269 | 12.65092 | 21 ft | 19 kts | 121° |
| 2026-05-06 13:38 | 55.62173 | 12.65144 | 19 ft | 17 kts | 214° |
| 2026-05-06 13:38 | 55.62060 | 12.65011 | 21 ft | 21 kts | 213° |
| 2026-05-06 13:38 | 55.61930 | 12.64863 | 20 ft | 24 kts | 212° |
| 2026-05-06 13:39 | 55.61787 | 12.64703 | 19 ft | 25 kts | 214° |
| 2026-05-06 13:39 | 55.61634 | 12.64525 | 22 ft | 27 kts | 212° |
| 2026-05-06 13:39 | 55.61476 | 12.64324 | 19 ft | 28 kts | 209° |
| 2026-05-06 13:39 | 55.61303 | 12.64138 | 19 ft | 30 kts | 212° |
| 2026-05-06 13:40 | 55.61121 | 12.63935 | 20 ft | 32 kts | 215° |
| 2026-05-06 13:40 | 55.60947 | 12.63736 | 21 ft | 25 kts | 212° |
| 2026-05-06 13:40 | 55.60838 | 12.63605 | 19 ft | 15 kts | 209° |
| 2026-05-06 13:40 | 55.60746 | 12.63669 | 19 ft | 17 kts | 130° |
| 2026-05-06 13:41 | 55.60678 | 12.63817 | 22 ft | 13 kts | 117° |
| 2026-05-06 13:41 | 55.60712 | 12.63924 | 21 ft | 11 kts | 41° |
| 2026-05-06 13:41 | 55.60786 | 12.64039 | 22 ft | 22 kts | 41° |
| 2026-05-06 13:41 | 55.61053 | 12.64454 | 18 ft | 84 kts | 41° |
| 2026-05-06 13:42 | 55.61647 | 12.65371 | 19 ft | 141 kts | 41° |
| 2026-05-06 13:42 | 55.62463 | 12.66602 | 141 ft | 162 kts | 45° |
| 2026-05-06 13:42 | 55.63346 | 12.67978 | 845 ft | 168 kts | 46° |
| 2026-05-06 13:42 | 55.64216 | 12.69344 | 1699 ft | 170 kts | 45° |
| 2026-05-06 13:43 | 55.65147 | 12.70858 | 2285 ft | 192 kts | 48° |
| 2026-05-06 13:43 | 55.66009 | 12.72747 | 3008 ft | 204 kts | 65° |
| 2026-05-06 13:43 | 55.66354 | 12.75214 | 3741 ft | 218 kts | 94° |
| 2026-05-06 13:43 | 55.65845 | 12.77778 | 4619 ft | 235 kts | 124° |
| 2026-05-06 13:44 | 55.64542 | 12.79620 | 5602 ft | 245 kts | 156° |
| 2026-05-06 13:44 | 55.62855 | 12.79975 | 6560 ft | 254 kts | 186° |
| 2026-05-06 13:44 | 55.61123 | 12.79167 | 7444 ft | 263 kts | 201° |
| 2026-05-06 13:44 | 55.59531 | 12.77504 | 8375 ft | 268 kts | 220° |
| 2026-05-06 13:45 | 55.58148 | 12.75381 | 9542 ft | 262 kts | 221° |
| 2026-05-06 13:45 | 55.55228 | 12.71107 | 10879 ft | 288 kts | 220° |
| 2026-05-06 13:45 | 55.53740 | 12.68985 | 11314 ft | 305 kts | 220° |
| 2026-05-06 13:46 | 55.52035 | 12.66577 | 11770 ft | 322 kts | 220° |
| 2026-05-06 13:46 | 55.50244 | 12.64056 | 12282 ft | 336 kts | 220° |
| 2026-05-06 13:46 | 55.48398 | 12.61458 | 13053 ft | 340 kts | 220° |
| 2026-05-06 13:46 | 55.46549 | 12.58838 | 13853 ft | 345 kts | 220° |
| 2026-05-06 13:47 | 55.44664 | 12.56173 | 14534 ft | 348 kts | 220° |
| 2026-05-06 13:47 | 55.42764 | 12.53486 | 15229 ft | 353 kts | 220° |
| 2026-05-06 13:47 | 55.40839 | 12.50770 | 15919 ft | 356 kts | 220° |
| 2026-05-06 13:47 | 55.38891 | 12.48023 | 16609 ft | 361 kts | 220° |
| 2026-05-06 13:48 | 55.36925 | 12.45252 | 17327 ft | 364 kts | 220° |
| 2026-05-06 13:48 | 55.34935 | 12.42452 | 18052 ft | 368 kts | 220° |
| 2026-05-06 13:48 | 55.32920 | 12.39623 | 18667 ft | 373 kts | 220° |
| 2026-05-06 13:48 | 55.30889 | 12.36774 | 19321 ft | 375 kts | 220° |
| 2026-05-06 13:49 | 55.28843 | 12.33907 | 19919 ft | 378 kts | 220° |
| 2026-05-06 13:49 | 55.26784 | 12.31026 | 20527 ft | 380 kts | 220° |
| 2026-05-06 13:49 | 55.24709 | 12.28126 | 21087 ft | 383 kts | 220° |
| 2026-05-06 13:49 | 55.22620 | 12.25210 | 21650 ft | 386 kts | 220° |
| 2026-05-06 13:50 | 55.21231 | 12.23274 | 22051 ft | 388 kts | 220° |
| 2026-05-06 13:50 | 55.19119 | 12.20331 | 22638 ft | 390 kts | 220° |
| 2026-05-06 13:50 | 55.16990 | 12.17371 | 23199 ft | 392 kts | 220° |
| 2026-05-06 13:50 | 55.14140 | 12.13415 | 23817 ft | 396 kts | 219° |
| 2026-05-06 13:51 | 55.11967 | 12.10406 | 23893 ft | 404 kts | 219° |
| 2026-05-06 13:51 | 55.09727 | 12.07318 | 23898 ft | 414 kts | 219° |
| 2026-05-06 13:51 | 55.07455 | 12.04187 | 23970 ft | 419 kts | 219° |
| 2026-05-06 13:51 | 55.05150 | 12.01020 | 23164 ft | 429 kts | 219° |
| 2026-05-06 13:52 | 55.03578 | 11.98858 | 23238 ft | 425 kts | 219° |
| 2026-05-06 13:52 | 55.01267 | 11.95668 | 23488 ft | 422 kts | 219° |
| 2026-05-06 13:52 | 54.98961 | 11.92492 | 23664 ft | 422 kts | 219° |
| 2026-05-06 13:52 | 54.96685 | 11.89367 | 23815 ft | 422 kts | 219° |
| 2026-05-06 13:53 | 54.94354 | 11.86171 | 23895 ft | 423 kts | 219° |
| 2026-05-06 13:53 | 54.92036 | 11.82997 | 23905 ft | 423 kts | 219° |
| 2026-05-06 13:53 | 54.89722 | 11.79835 | 23907 ft | 423 kts | 219° |
| 2026-05-06 13:53 | 54.87418 | 11.76689 | 23903 ft | 423 kts | 219° |
| 2026-05-06 13:54 | 54.85102 | 11.73533 | 23898 ft | 423 kts | 219° |
| 2026-05-06 13:54 | 54.82786 | 11.70381 | 23899 ft | 423 kts | 219° |
| 2026-05-06 13:54 | 54.80507 | 11.67286 | 23794 ft | 416 kts | 219° |
| 2026-05-06 13:54 | 54.78211 | 11.64166 | 23568 ft | 413 kts | 219° |
| 2026-05-06 13:55 | 54.75977 | 11.61139 | 23329 ft | 411 kts | 219° |
| 2026-05-06 13:55 | 54.73732 | 11.58102 | 23059 ft | 410 kts | 219° |
| 2026-05-06 13:55 | 54.71455 | 11.55024 | 22799 ft | 409 kts | 219° |
| 2026-05-06 13:55 | 54.69220 | 11.52009 | 22532 ft | 407 kts | 219° |
| 2026-05-06 13:56 | 54.67018 | 11.49042 | 22277 ft | 404 kts | 219° |
| 2026-05-06 13:56 | 54.64827 | 11.46091 | 22036 ft | 397 kts | 219° |
| 2026-05-06 13:56 | 54.62652 | 11.43168 | 21776 ft | 395 kts | 219° |
| 2026-05-06 13:56 | 54.60498 | 11.40277 | 21514 ft | 393 kts | 219° |
| 2026-05-06 13:57 | 54.58340 | 11.37387 | 21272 ft | 392 kts | 219° |
| 2026-05-06 13:57 | 54.56193 | 11.34516 | 21024 ft | 391 kts | 219° |
| 2026-05-06 13:57 | 54.54018 | 11.31610 | 20770 ft | 389 kts | 219° |
| 2026-05-06 13:57 | 54.51908 | 11.28796 | 20513 ft | 388 kts | 219° |
| 2026-05-06 13:58 | 54.49769 | 11.25946 | 20294 ft | 387 kts | 219° |
| 2026-05-06 13:58 | 54.47648 | 11.23126 | 20048 ft | 386 kts | 219° |
| 2026-05-06 13:58 | 54.45525 | 11.20306 | 19808 ft | 384 kts | 219° |
| 2026-05-06 13:58 | 54.43424 | 11.17517 | 19571 ft | 383 kts | 219° |
| 2026-05-06 13:59 | 54.41307 | 11.14713 | 19335 ft | 382 kts | 219° |
| 2026-05-06 13:59 | 54.39179 | 11.11898 | 19101 ft | 380 kts | 219° |
| 2026-05-06 13:59 | 54.37120 | 11.09177 | 18873 ft | 379 kts | 219° |
| 2026-05-06 13:59 | 54.35029 | 11.06418 | 18651 ft | 378 kts | 218° |
| 2026-05-06 14:00 | 54.32949 | 11.03677 | 18414 ft | 377 kts | 218° |
| 2026-05-06 14:00 | 54.30900 | 11.00893 | 18171 ft | 375 kts | 224° |
| 2026-05-06 14:00 | 54.29240 | 10.97478 | 17919 ft | 373 kts | 232° |
| 2026-05-06 14:00 | 54.27621 | 10.93943 | 17653 ft | 372 kts | 232° |
| 2026-05-06 14:01 | 54.26035 | 10.90456 | 17400 ft | 371 kts | 232° |
| 2026-05-06 14:01 | 54.24460 | 10.86982 | 17150 ft | 370 kts | 232° |
| 2026-05-06 14:01 | 54.22909 | 10.83554 | 16899 ft | 369 kts | 232° |
| 2026-05-06 14:01 | 54.21342 | 10.80091 | 16652 ft | 368 kts | 232° |
| 2026-05-06 14:02 | 54.19777 | 10.76639 | 16394 ft | 367 kts | 232° |
| 2026-05-06 14:02 | 54.18219 | 10.73204 | 16160 ft | 366 kts | 232° |
| 2026-05-06 14:02 | 54.16663 | 10.69777 | 15875 ft | 362 kts | 232° |
| 2026-05-06 14:02 | 54.15113 | 10.66371 | 15977 ft | 365 kts | 232° |
| 2026-05-06 14:03 | 54.13561 | 10.62963 | 15447 ft | 363 kts | 231° |
| 2026-05-06 14:03 | 54.11941 | 10.59456 | 14524 ft | 372 kts | 231° |
| 2026-05-06 14:03 | 54.10402 | 10.56083 | 14571 ft | 353 kts | 232° |
| 2026-05-06 14:03 | 54.08904 | 10.52782 | 14098 ft | 352 kts | 231° |
| 2026-05-06 14:04 | 54.07388 | 10.49463 | 13383 ft | 358 kts | 231° |
| 2026-05-06 14:04 | 54.05855 | 10.46116 | 12753 ft | 357 kts | 231° |
| 2026-05-06 14:04 | 54.04331 | 10.42795 | 12173 ft | 355 kts | 231° |
| 2026-05-06 14:04 | 54.02815 | 10.39498 | 11675 ft | 351 kts | 232° |
| 2026-05-06 14:05 | 54.01295 | 10.36198 | 11146 ft | 349 kts | 232° |
| 2026-05-06 14:05 | 53.99829 | 10.33018 | 10605 ft | 347 kts | 232° |
| 2026-05-06 14:05 | 53.98333 | 10.29774 | 10028 ft | 347 kts | 233° |
| 2026-05-06 14:05 | 53.97179 | 10.26346 | 9624 ft | 340 kts | 245° |
| 2026-05-06 14:06 | 53.96184 | 10.22770 | 9409 ft | 327 kts | 245° |
| 2026-05-06 14:06 | 53.95218 | 10.19336 | 8919 ft | 324 kts | 245° |
| 2026-05-06 14:06 | 53.94308 | 10.16097 | 9405 ft | 289 kts | 245° |
| 2026-05-06 14:06 | 53.93461 | 10.13055 | 9230 ft | 282 kts | 245° |
| 2026-05-06 14:07 | 53.92654 | 10.10111 | 9641 ft | 276 kts | 245° |
| 2026-05-06 14:07 | 53.91796 | 10.07170 | 10030 ft | 280 kts | 244° |
| 2026-05-06 14:07 | 53.90944 | 10.04219 | 10040 ft | 279 kts | 245° |
| 2026-05-06 14:07 | 53.90095 | 10.01266 | 10027 ft | 279 kts | 245° |
| 2026-05-06 14:08 | 53.89247 | 9.98305 | 9975 ft | 279 kts | 245° |
| 2026-05-06 14:08 | 53.88403 | 9.95353 | 9895 ft | 278 kts | 245° |
| 2026-05-06 14:08 | 53.87560 | 9.92412 | 9891 ft | 278 kts | 245° |
| 2026-05-06 14:08 | 53.86714 | 9.89461 | 9880 ft | 278 kts | 245° |
| 2026-05-06 14:09 | 53.85869 | 9.86511 | 9876 ft | 278 kts | 245° |
| 2026-05-06 14:09 | 53.85021 | 9.83562 | 9876 ft | 278 kts | 245° |
| 2026-05-06 14:09 | 53.84175 | 9.80618 | 9869 ft | 278 kts | 245° |
| 2026-05-06 14:09 | 53.83328 | 9.77676 | 9880 ft | 278 kts | 245° |
| 2026-05-06 14:10 | 53.82479 | 9.74729 | 9867 ft | 278 kts | 245° |
| 2026-05-06 14:10 | 53.81630 | 9.71789 | 9877 ft | 278 kts | 245° |
| 2026-05-06 14:10 | 53.80778 | 9.68840 | 9869 ft | 279 kts | 245° |
| 2026-05-06 14:10 | 53.79928 | 9.65901 | 9874 ft | 279 kts | 245° |
| 2026-05-06 14:11 | 53.79073 | 9.62951 | 9871 ft | 279 kts | 245° |
| 2026-05-06 14:11 | 53.78223 | 9.60016 | 9867 ft | 279 kts | 245° |
| 2026-05-06 14:11 | 53.77366 | 9.57067 | 9871 ft | 279 kts | 245° |
| 2026-05-06 14:11 | 53.76514 | 9.54132 | 9874 ft | 279 kts | 245° |
| 2026-05-06 14:12 | 53.75654 | 9.51204 | 9875 ft | 273 kts | 242° |
| 2026-05-06 14:12 | 53.74462 | 9.48841 | 9870 ft | 260 kts | 217° |
| 2026-05-06 14:12 | 53.72990 | 9.47130 | 9881 ft | 255 kts | 216° |
| 2026-05-06 14:12 | 53.71526 | 9.45421 | 9871 ft | 258 kts | 215° |
| 2026-05-06 14:13 | 53.69944 | 9.44029 | 9852 ft | 258 kts | 193° |
| 2026-05-06 14:13 | 53.68162 | 9.43960 | 9865 ft | 259 kts | 169° |
| 2026-05-06 14:13 | 53.66383 | 9.44564 | 9575 ft | 263 kts | 172° |
| 2026-05-06 14:13 | 53.64549 | 9.44549 | 9164 ft | 265 kts | 181° |
| 2026-05-06 14:14 | 53.62744 | 9.45050 | 8743 ft | 264 kts | 154° |
| 2026-05-06 14:14 | 53.61306 | 9.46881 | 8345 ft | 259 kts | 125° |
| 2026-05-06 14:14 | 53.60579 | 9.49568 | 7993 ft | 250 kts | 99° |
| 2026-05-06 14:14 | 53.60369 | 9.52385 | 7926 ft | 235 kts | 94° |
| 2026-05-06 14:15 | 53.60223 | 9.55051 | 7908 ft | 222 kts | 94° |
| 2026-05-06 14:15 | 53.60085 | 9.57582 | 7895 ft | 215 kts | 94° |
| 2026-05-06 14:15 | 53.59948 | 9.60095 | 7885 ft | 216 kts | 94° |
| 2026-05-06 14:15 | 53.59813 | 9.62614 | 7887 ft | 216 kts | 94° |
| 2026-05-06 14:16 | 53.59573 | 9.65099 | 7867 ft | 216 kts | 110° |
| 2026-05-06 14:16 | 53.58654 | 9.67069 | 7849 ft | 219 kts | 144° |
| 2026-05-06 14:16 | 53.57210 | 9.67864 | 7878 ft | 225 kts | 177° |
| 2026-05-06 14:16 | 53.55697 | 9.67209 | 7879 ft | 230 kts | 210° |
| 2026-05-06 14:17 | 53.54597 | 9.65270 | 7878 ft | 233 kts | 243° |
| 2026-05-06 14:17 | 53.54171 | 9.62655 | 7903 ft | 234 kts | 263° |
| 2026-05-06 14:17 | 53.53974 | 9.59926 | 7921 ft | 236 kts | 264° |
| 2026-05-06 14:17 | 53.53787 | 9.57190 | 7890 ft | 236 kts | 264° |
| 2026-05-06 14:18 | 53.53598 | 9.54453 | 7862 ft | 236 kts | 264° |
| 2026-05-06 14:18 | 53.53405 | 9.51686 | 7519 ft | 240 kts | 264° |
| 2026-05-06 14:18 | 53.53212 | 9.48886 | 7123 ft | 244 kts | 264° |
| 2026-05-06 14:18 | 53.53016 | 9.45994 | 6644 ft | 255 kts | 264° |
| 2026-05-06 14:19 | 53.52812 | 9.42975 | 6086 ft | 262 kts | 264° |
| 2026-05-06 14:19 | 53.52608 | 9.39930 | 5515 ft | 262 kts | 264° |
| 2026-05-06 14:19 | 53.52393 | 9.36893 | 4965 ft | 264 kts | 262° |
| 2026-05-06 14:19 | 53.51789 | 9.34088 | 4619 ft | 258 kts | 233° |
| 2026-05-06 14:20 | 53.50516 | 9.32268 | 4736 ft | 228 kts | 201° |
| 2026-05-06 14:20 | 53.49028 | 9.31785 | 4758 ft | 217 kts | 177° |
| 2026-05-06 14:20 | 53.47516 | 9.31843 | 4750 ft | 217 kts | 174° |
| 2026-05-06 14:20 | 53.46012 | 9.31952 | 4739 ft | 216 kts | 171° |
| 2026-05-06 14:21 | 53.44653 | 9.32789 | 4675 ft | 205 kts | 136° |
| 2026-05-06 14:21 | 53.43809 | 9.34650 | 4718 ft | 201 kts | 115° |
| 2026-05-06 14:21 | 53.43174 | 9.36746 | 4761 ft | 203 kts | 114° |
| 2026-05-06 14:21 | 53.42537 | 9.38870 | 4778 ft | 204 kts | 114° |
| 2026-05-06 14:22 | 53.41902 | 9.41006 | 4532 ft | 205 kts | 114° |
| 2026-05-06 14:22 | 53.41406 | 9.43219 | 4172 ft | 201 kts | 94° |
| 2026-05-06 14:22 | 53.41418 | 9.45523 | 3873 ft | 197 kts | 84° |
| 2026-05-06 14:22 | 53.41522 | 9.47810 | 3562 ft | 197 kts | 84° |
| 2026-05-06 14:23 | 53.41620 | 9.50108 | 3243 ft | 198 kts | 84° |
| 2026-05-06 14:23 | 53.41715 | 9.52409 | 2884 ft | 197 kts | 84° |
| 2026-05-06 14:23 | 53.41823 | 9.54639 | 2733 ft | 183 kts | 77° |
| 2026-05-06 14:23 | 53.42342 | 9.56433 | 2757 ft | 166 kts | 57° |
| 2026-05-06 14:24 | 53.42999 | 9.58047 | 2793 ft | 169 kts | 56° |
| 2026-05-06 14:24 | 53.43702 | 9.59642 | 2902 ft | 171 kts | 53° |
| 2026-05-06 14:24 | 53.44435 | 9.61216 | 2974 ft | 172 kts | 53° |
| 2026-05-06 14:24 | 53.45185 | 9.62777 | 2984 ft | 171 kts | 52° |
| 2026-05-06 14:25 | 53.45948 | 9.64339 | 3034 ft | 179 kts | 51° |
| 2026-05-06 14:25 | 53.46780 | 9.66028 | 2989 ft | 189 kts | 52° |
| 2026-05-06 14:25 | 53.47606 | 9.67706 | 2637 ft | 182 kts | 52° |
| 2026-05-06 14:25 | 53.48387 | 9.69304 | 2853 ft | 185 kts | 51° |
| 2026-05-06 14:26 | 53.49210 | 9.70922 | 3116 ft | 173 kts | 50° |
| 2026-05-06 14:26 | 53.49977 | 9.72445 | 2937 ft | 169 kts | 52° |
| 2026-05-06 14:26 | 53.50718 | 9.73953 | 3032 ft | 169 kts | 51° |
| 2026-05-06 14:26 | 53.51487 | 9.75506 | 3003 ft | 175 kts | 51° |
| 2026-05-06 14:27 | 53.52266 | 9.77077 | 2969 ft | 176 kts | 51° |
| 2026-05-06 14:27 | 53.53055 | 9.78665 | 2695 ft | 178 kts | 51° |
| 2026-05-06 14:27 | 53.53834 | 9.80235 | 2365 ft | 169 kts | 50° |
| 2026-05-06 14:27 | 53.54532 | 9.81641 | 2125 ft | 147 kts | 51° |
| 2026-05-06 14:28 | 53.55146 | 9.82908 | 1947 ft | 139 kts | 52° |
| 2026-05-06 14:28 | 53.55777 | 9.84181 | 1805 ft | 145 kts | 50° |
| 2026-05-06 14:28 | 53.56429 | 9.85500 | 1769 ft | 149 kts | 51° |
| 2026-05-06 14:28 | 53.57070 | 9.86791 | 1619 ft | 137 kts | 49° |
| 2026-05-06 14:29 | 53.57722 | 9.88103 | 1475 ft | 161 kts | 51° |
| 2026-05-06 14:29 | 53.58401 | 9.89449 | 1210 ft | 139 kts | 50° |
| 2026-05-06 14:29 | 53.58893 | 9.90441 | 1000 ft | 126 kts | 50° |
| 2026-05-06 14:29 | 53.59383 | 9.91516 | 776 ft | 116 kts | 51° |
| 2026-05-06 14:30 | 53.59964 | 9.92634 | 677 ft | 134 kts | 49° |
| 2026-05-06 14:30 | 53.60556 | 9.93809 | 498 ft | 130 kts | 49° |
| 2026-05-06 14:30 | 53.61141 | 9.94972 | 570 ft | 143 kts | 50° |
| 2026-05-06 14:30 | 53.61815 | 9.96337 | 1139 ft | 162 kts | 50° |
| 2026-05-06 14:31 | 53.62550 | 9.97926 | 1854 ft | 175 kts | 53° |
| 2026-05-06 14:31 | 53.63301 | 9.99587 | 2708 ft | 185 kts | 51° |
| 2026-05-06 14:31 | 53.64102 | 10.01173 | 3965 ft | 175 kts | 51° |
| 2026-05-06 14:31 | 53.64884 | 10.02730 | 3779 ft | 178 kts | 52° |
| 2026-05-06 14:32 | 53.65753 | 10.04484 | 3941 ft | 202 kts | 52° |
| 2026-05-06 14:32 | 53.66678 | 10.06362 | 3913 ft | 214 kts | 51° |
| 2026-05-06 14:32 | 53.67640 | 10.08323 | 3990 ft | 219 kts | 51° |
| 2026-05-06 14:32 | 53.68553 | 10.10374 | 3975 ft | 214 kts | 65° |
| 2026-05-06 14:33 | 53.68993 | 10.12652 | 4009 ft | 197 kts | 67° |
| 2026-05-06 14:33 | 53.69867 | 10.14309 | 4147 ft | 194 kts | 31° |
| 2026-05-06 14:33 | 53.71201 | 10.14734 | 4379 ft | 205 kts | 356° |
| 2026-05-06 14:33 | 53.72519 | 10.13718 | 4655 ft | 216 kts | 321° |
| 2026-05-06 14:34 | 53.73373 | 10.11598 | 4946 ft | 223 kts | 297° |
| 2026-05-06 14:34 | 53.73782 | 10.09984 | 5033 ft | 228 kts | 295° |
| 2026-05-06 14:34 | 53.74387 | 10.07468 | 5015 ft | 242 kts | 294° |
| 2026-05-06 14:34 | 53.74846 | 10.04633 | 4973 ft | 249 kts | 271° |
| 2026-05-06 14:35 | 53.74456 | 10.01782 | 5028 ft | 251 kts | 242° |
| 2026-05-06 14:35 | 53.73524 | 9.99271 | 5015 ft | 253 kts | 234° |
| 2026-05-06 14:35 | 53.72521 | 9.96821 | 5012 ft | 254 kts | 234° |
| 2026-05-06 14:35 | 53.71522 | 9.94379 | 5000 ft | 253 kts | 234° |
| 2026-05-06 14:36 | 53.70518 | 9.91945 | 4997 ft | 252 kts | 234° |
| 2026-05-06 14:36 | 53.69522 | 9.89525 | 5005 ft | 252 kts | 234° |
| 2026-05-06 14:36 | 53.68521 | 9.87094 | 4994 ft | 252 kts | 234° |
| 2026-05-06 14:36 | 53.67519 | 9.84664 | 5013 ft | 252 kts | 234° |
| 2026-05-06 14:37 | 53.66514 | 9.82229 | 4987 ft | 252 kts | 234° |
| 2026-05-06 14:37 | 53.65512 | 9.79806 | 4993 ft | 252 kts | 234° |
| 2026-05-06 14:37 | 53.64515 | 9.77384 | 4997 ft | 252 kts | 234° |
| 2026-05-06 14:37 | 53.63532 | 9.74992 | 4994 ft | 250 kts | 234° |
| 2026-05-06 14:38 | 53.62547 | 9.72594 | 4995 ft | 248 kts | 234° |
| 2026-05-06 14:38 | 53.61581 | 9.70226 | 5000 ft | 245 kts | 234° |
| 2026-05-06 14:38 | 53.60611 | 9.67871 | 4942 ft | 242 kts | 234° |
| 2026-05-06 14:38 | 53.59655 | 9.65555 | 4619 ft | 242 kts | 234° |
| 2026-05-06 14:39 | 53.58702 | 9.63250 | 4522 ft | 223 kts | 234° |
| 2026-05-06 14:39 | 53.57789 | 9.61040 | 3792 ft | 243 kts | 234° |
| 2026-05-06 14:39 | 53.56826 | 9.58742 | 3481 ft | 235 kts | 234° |
| 2026-05-06 14:39 | 53.55886 | 9.56575 | 3254 ft | 224 kts | 228° |
| 2026-05-06 14:40 | 53.54612 | 9.55120 | 2955 ft | 225 kts | 194° |
| 2026-05-06 14:40 | 53.53098 | 9.55020 | 2821 ft | 216 kts | 161° |
| 2026-05-06 14:40 | 53.51744 | 9.56007 | 2856 ft | 210 kts | 146° |
| 2026-05-06 14:40 | 53.50526 | 9.57172 | 2875 ft | 191 kts | 144° |
| 2026-05-06 14:41 | 53.49435 | 9.58255 | 2816 ft | 171 kts | 137° |
| 2026-05-06 14:41 | 53.48773 | 9.59802 | 2288 ft | 167 kts | 100° |
| 2026-05-06 14:41 | 53.48726 | 9.61585 | 2432 ft | 154 kts | 80° |
| 2026-05-06 14:41 | 53.48828 | 9.63478 | 2680 ft | 167 kts | 83° |
| 2026-05-06 14:42 | 53.48889 | 9.65377 | 2673 ft | 163 kts | 84° |
| 2026-05-06 14:42 | 53.48945 | 9.67277 | 2666 ft | 164 kts | 84° |
| 2026-05-06 14:42 | 53.49006 | 9.69191 | 2710 ft | 164 kts | 82° |
| 2026-05-06 14:42 | 53.49400 | 9.70963 | 2863 ft | 163 kts | 60° |
| 2026-05-06 14:43 | 53.50048 | 9.72527 | 2973 ft | 164 kts | 54° |
| 2026-05-06 14:43 | 53.50759 | 9.74031 | 3008 ft | 165 kts | 52° |
| 2026-05-06 14:43 | 53.51495 | 9.75517 | 2995 ft | 165 kts | 52° |
| 2026-05-06 14:43 | 53.52233 | 9.77008 | 2990 ft | 166 kts | 51° |
| 2026-05-06 14:44 | 53.52977 | 9.78508 | 2834 ft | 166 kts | 51° |
| 2026-05-06 14:44 | 53.53713 | 9.79992 | 2678 ft | 166 kts | 51° |
| 2026-05-06 14:44 | 53.54447 | 9.81469 | 2448 ft | 163 kts | 51° |
| 2026-05-06 14:45 | 53.55893 | 9.84383 | 1991 ft | 159 kts | 51° |
| 2026-05-06 14:45 | 53.56580 | 9.85773 | 1806 ft | 151 kts | 50° |
| 2026-05-06 14:45 | 53.57238 | 9.87099 | 1597 ft | 146 kts | 50° |
| 2026-05-06 14:45 | 53.57884 | 9.88407 | 1388 ft | 144 kts | 50° |
| 2026-05-06 14:46 | 53.58495 | 9.89640 | 1226 ft | 131 kts | 51° |
| 2026-05-06 14:46 | 53.59070 | 9.90801 | 1032 ft | 128 kts | 51° |
| 2026-05-06 14:46 | 53.59633 | 9.91940 | 822 ft | 126 kts | 50° |
| 2026-05-06 14:46 | 53.60195 | 9.93076 | 637 ft | 127 kts | 49° |
| 2026-05-06 14:47 | 53.60759 | 9.94213 | 441 ft | 126 kts | 51° |
| 2026-05-06 14:47 | 53.61328 | 9.95376 | 279 ft | 130 kts | 49° |
| 2026-05-06 14:47 | 53.61890 | 9.96502 | 107 ft | 121 kts | 49° |
| 2026-05-06 14:47 | 53.62396 | 9.97514 | 47 ft | 101 kts | 50° |
| 2026-05-06 14:48 | 53.62745 | 9.98229 | 51 ft | 54 kts | 50° |
| 2026-05-06 14:48 | 53.62889 | 9.98520 | 50 ft | 27 kts | 50° |
| 2026-05-06 14:48 | 53.63021 | 9.98790 | 50 ft | 27 kts | 54° |
| 2026-05-06 14:48 | 53.63079 | 9.98962 | 50 ft | 15 kts | 69° |
| 2026-05-06 14:49 | 53.63092 | 9.99139 | 51 ft | 13 kts | 92° |
| 2026-05-06 14:49 | 53.63089 | 9.99242 | 50 ft | 8 kts | 94° |
| 2026-05-06 14:49 | 53.63087 | 9.99341 | 50 ft | 6 kts | 82° |
| 2026-05-06 14:49 | 53.63089 | 9.99357 | 50 ft | 0 kts | 77° |
| 2026-05-06 14:50 | 53.63093 | 9.99380 | 50 ft | 6 kts | 68° |
| 2026-05-06 14:50 | 53.63120 | 9.99451 | 51 ft | 8 kts | 56° |
| 2026-05-06 14:50 | 53.63161 | 9.99541 | 50 ft | 11 kts | 51° |
| 2026-05-06 14:51 | 53.63204 | 9.99633 | 50 ft | 7 kts | 51° |
| 2026-05-06 14:51 | 53.63244 | 9.99706 | 51 ft | 10 kts | 46° |
| 2026-05-06 14:51 | 53.63295 | 9.99799 | 52 ft | 12 kts | 54° |
| 2026-05-06 14:51 | 53.63296 | 9.99928 | 49 ft | 6 kts | 138° |